sensor_id;sensor_type;location;lat;lon;timestamp;pressure;altitude;pressure_sealevel;temperature
48854;BMP280;34673;52.808;17.856;2022-07-26T00:00:46;99518.78;;;22.53
48854;BMP280;34673;52.808;17.856;2022-07-26T00:03:14;99515.41;;;22.51
48854;BMP280;34673;52.808;17.856;2022-07-26T00:05:41;99512.75;;;22.51
48854;BMP280;34673;52.808;17.856;2022-07-26T00:08:09;99502.66;;;22.45
48854;BMP280;34673;52.808;17.856;2022-07-26T00:10:42;99488.66;;;22.45
48854;BMP280;34673;52.808;17.856;2022-07-26T00:13:10;99484.16;;;22.34
48854;BMP280;34673;52.808;17.856;2022-07-26T00:15:38;99486.56;;;22.37
48854;BMP280;34673;52.808;17.856;2022-07-26T00:18:05;99480.09;;;22.41
48854;BMP280;34673;52.808;17.856;2022-07-26T00:20:38;99480.09;;;22.41
48854;BMP280;34673;52.808;17.856;2022-07-26T00:23:07;99466.00;;;22.42
48854;BMP280;34673;52.808;17.856;2022-07-26T00:25:34;99469.78;;;22.38
48854;BMP280;34673;52.808;17.856;2022-07-26T00:28:02;99469.34;;;22.44
48854;BMP280;34673;52.808;17.856;2022-07-26T00:30:30;99474.38;;;22.47
48854;BMP280;34673;52.808;17.856;2022-07-26T00:32:57;99479.34;;;22.52
48854;BMP280;34673;52.808;17.856;2022-07-26T00:35:24;99478.41;;;22.53
48854;BMP280;34673;52.808;17.856;2022-07-26T00:37:52;99470.59;;;22.51
48854;BMP280;34673;52.808;17.856;2022-07-26T00:40:19;99478.50;;;22.51
48854;BMP280;34673;52.808;17.856;2022-07-26T00:42:46;99490.63;;;22.54
48854;BMP280;34673;52.808;17.856;2022-07-26T00:45:14;99495.06;;;22.53
48854;BMP280;34673;52.808;17.856;2022-07-26T00:47:42;99505.47;;;22.55
48854;BMP280;34673;52.808;17.856;2022-07-26T00:50:12;99496.94;;;22.51
48854;BMP280;34673;52.808;17.856;2022-07-26T00:52:42;99508.22;;;22.53
48854;BMP280;34673;52.808;17.856;2022-07-26T00:55:09;99497.91;;;22.50
48854;BMP280;34673;52.808;17.856;2022-07-26T00:57:37;99489.28;;;22.48
48854;BMP280;34673;52.808;17.856;2022-07-26T01:00:07;99495.47;;;22.47
48854;BMP280;34673;52.808;17.856;2022-07-26T01:02:35;99491.28;;;22.45
48854;BMP280;34673;52.808;17.856;2022-07-26T01:05:02;99479.88;;;22.44
48854;BMP280;34673;52.808;17.856;2022-07-26T01:07:30;99467.66;;;22.43
48854;BMP280;34673;52.808;17.856;2022-07-26T01:09:57;99462.41;;;22.43
48854;BMP280;34673;52.808;17.856;2022-07-26T01:12:24;99464.19;;;22.43
48854;BMP280;34673;52.808;17.856;2022-07-26T01:14:51;99465.03;;;22.43
48854;BMP280;34673;52.808;17.856;2022-07-26T01:17:18;99469.03;;;22.49
48854;BMP280;34673;52.808;17.856;2022-07-26T01:19:45;99470.06;;;22.46
48854;BMP280;34673;52.808;17.856;2022-07-26T01:22:13;99480.91;;;22.54
48854;BMP280;34673;52.808;17.856;2022-07-26T01:24:40;99473.97;;;22.53
48854;BMP280;34673;52.808;17.856;2022-07-26T01:27:08;99482.41;;;22.59
48854;BMP280;34673;52.808;17.856;2022-07-26T01:29:35;99478.06;;;22.57
48854;BMP280;34673;52.808;17.856;2022-07-26T01:32:03;99487.44;;;22.62
48854;BMP280;34673;52.808;17.856;2022-07-26T01:34:31;99482.59;;;22.55
48854;BMP280;34673;52.808;17.856;2022-07-26T01:36:58;99487.66;;;22.59
48854;BMP280;34673;52.808;17.856;2022-07-26T01:39:25;99479.00;;;22.56
48854;BMP280;34673;52.808;17.856;2022-07-26T01:41:53;99473.53;;;22.60
48854;BMP280;34673;52.808;17.856;2022-07-26T01:44:22;99470.38;;;22.54
48854;BMP280;34673;52.808;17.856;2022-07-26T01:46:50;99464.59;;;22.49
48854;BMP280;34673;52.808;17.856;2022-07-26T01:49:18;99467.44;;;22.46
48854;BMP280;34673;52.808;17.856;2022-07-26T01:51:45;99476.09;;;22.48
48854;BMP280;34673;52.808;17.856;2022-07-26T01:54:13;99472.72;;;22.46
48854;BMP280;34673;52.808;17.856;2022-07-26T01:56:48;99471.97;;;22.44
48854;BMP280;34673;52.808;17.856;2022-07-26T01:59:15;99464.50;;;22.38
48854;BMP280;34673;52.808;17.856;2022-07-26T02:01:42;99460.91;;;22.39
48854;BMP280;34673;52.808;17.856;2022-07-26T02:04:10;99469.78;;;22.38
48854;BMP280;34673;52.808;17.856;2022-07-26T02:06:57;99474.00;;;22.28
48854;BMP280;34673;52.808;17.856;2022-07-26T02:09:24;99491.63;;;22.27
48854;BMP280;34673;52.808;17.856;2022-07-26T02:11:53;99510.19;;;22.26
48854;BMP280;34673;52.808;17.856;2022-07-26T02:14:20;99530.53;;;22.24
48854;BMP280;34673;52.808;17.856;2022-07-26T02:16:51;99542.13;;;22.21
48854;BMP280;34673;52.808;17.856;2022-07-26T02:19:29;99527.09;;;22.09
48854;BMP280;34673;52.808;17.856;2022-07-26T02:21:57;99514.28;;;22.04
48854;BMP280;34673;52.808;17.856;2022-07-26T02:24:25;99523.31;;;22.00
48854;BMP280;34673;52.808;17.856;2022-07-26T02:26:55;99534.50;;;21.91
48854;BMP280;34673;52.808;17.856;2022-07-26T02:29:23;99519.31;;;21.82
48854;BMP280;34673;52.808;17.856;2022-07-26T02:31:51;99512.59;;;21.78
48854;BMP280;34673;52.808;17.856;2022-07-26T02:34:19;99505.41;;;21.67
48854;BMP280;34673;52.808;17.856;2022-07-26T02:36:46;99511.31;;;21.71
48854;BMP280;34673;52.808;17.856;2022-07-26T02:39:14;99503.63;;;21.67
48854;BMP280;34673;52.808;17.856;2022-07-26T02:41:41;99520.59;;;21.63
48854;BMP280;34673;52.808;17.856;2022-07-26T02:44:08;99516.25;;;21.62
48854;BMP280;34673;52.808;17.856;2022-07-26T02:46:36;99522.69;;;21.58
48854;BMP280;34673;52.808;17.856;2022-07-26T02:49:04;99531.50;;;21.57
48854;BMP280;34673;52.808;17.856;2022-07-26T02:51:32;99508.97;;;21.53
48854;BMP280;34673;52.808;17.856;2022-07-26T02:53:59;99514.44;;;21.50
48854;BMP280;34673;52.808;17.856;2022-07-26T02:56:27;99508.56;;;21.59
48854;BMP280;34673;52.808;17.856;2022-07-26T02:58:55;99503.09;;;21.62
48854;BMP280;34673;52.808;17.856;2022-07-26T03:01:22;99503.22;;;21.61
48854;BMP280;34673;52.808;17.856;2022-07-26T03:03:50;99502.88;;;21.65
48854;BMP280;34673;52.808;17.856;2022-07-26T03:06:18;99507.94;;;21.68
48854;BMP280;34673;52.808;17.856;2022-07-26T03:08:46;99497.41;;;21.68
48854;BMP280;34673;52.808;17.856;2022-07-26T03:11:13;99507.09;;;21.81
48854;BMP280;34673;52.808;17.856;2022-07-26T03:13:41;99513.66;;;21.88
48854;BMP280;34673;52.808;17.856;2022-07-26T03:16:08;99525.63;;;21.92
48854;BMP280;34673;52.808;17.856;2022-07-26T03:18:36;99538.50;;;21.97
48854;BMP280;34673;52.808;17.856;2022-07-26T03:21:03;99544.59;;;21.97
48854;BMP280;34673;52.808;17.856;2022-07-26T03:23:31;99549.88;;;21.97
48854;BMP280;34673;52.808;17.856;2022-07-26T03:26:03;99551.75;;;21.95
48854;BMP280;34673;52.808;17.856;2022-07-26T03:28:32;99557.03;;;21.95
48854;BMP280;34673;52.808;17.856;2022-07-26T03:30:59;99557.16;;;21.94
48854;BMP280;34673;52.808;17.856;2022-07-26T03:33:28;99551.75;;;21.95
48854;BMP280;34673;52.808;17.856;2022-07-26T03:35:56;99545.56;;;21.96
48854;BMP280;34673;52.808;17.856;2022-07-26T03:38:23;99563.25;;;21.94
48854;BMP280;34673;52.808;17.856;2022-07-26T03:40:51;99556.19;;;21.95
48854;BMP280;34673;52.808;17.856;2022-07-26T03:43:18;99553.47;;;21.96
48854;BMP280;34673;52.808;17.856;2022-07-26T03:45:49;99558.75;;;21.96
48854;BMP280;34673;52.808;17.856;2022-07-26T03:48:20;99561.38;;;21.96
48854;BMP280;34673;52.808;17.856;2022-07-26T03:50:48;99576.22;;;21.97
48854;BMP280;34673;52.808;17.856;2022-07-26T03:53:16;99576.22;;;21.97
48854;BMP280;34673;52.808;17.856;2022-07-26T03:55:43;99591.59;;;22.03
48854;BMP280;34673;52.808;17.856;2022-07-26T03:58:29;99591.59;;;22.03
48854;BMP280;34673;52.808;17.856;2022-07-26T04:00:56;99589.69;;;22.05
48854;BMP280;34673;52.808;17.856;2022-07-26T04:03:23;99586.09;;;22.06
48854;BMP280;34673;52.808;17.856;2022-07-26T04:05:51;99595.81;;;22.06
48854;BMP280;34673;52.808;17.856;2022-07-26T04:08:18;99607.19;;;22.06
48854;BMP280;34673;52.808;17.856;2022-07-26T04:10:49;99612.44;;;22.06
48854;BMP280;34673;52.808;17.856;2022-07-26T04:13:19;99610.56;;;22.08
48854;BMP280;34673;52.808;17.856;2022-07-26T04:15:49;99615.81;;;22.08
48854;BMP280;34673;52.808;17.856;2022-07-26T04:18:17;99627.53;;;22.04
48854;BMP280;34673;52.808;17.856;2022-07-26T04:20:44;99628.06;;;22.09
48854;BMP280;34673;52.808;17.856;2022-07-26T04:23:12;99636.69;;;22.11
48854;BMP280;34673;52.808;17.856;2022-07-26T04:25:39;99647.22;;;22.11
48854;BMP280;34673;52.808;17.856;2022-07-26T04:28:08;99649.75;;;22.00
48854;BMP280;34673;52.808;17.856;2022-07-26T04:30:36;99675.88;;;22.03
48854;BMP280;34673;52.808;17.856;2022-07-26T04:33:04;99689.78;;;22.05
48854;BMP280;34673;52.808;17.856;2022-07-26T04:35:32;99702.00;;;22.06
48854;BMP280;34673;52.808;17.856;2022-07-26T04:38:00;99712.03;;;22.01
48854;BMP280;34673;52.808;17.856;2022-07-26T04:40:29;99721.06;;;21.97
48854;BMP280;34673;52.808;17.856;2022-07-26T04:43:00;99708.28;;;21.91
48854;BMP280;34673;52.808;17.856;2022-07-26T04:45:28;99708.84;;;21.96
48854;BMP280;34673;52.808;17.856;2022-07-26T04:47:56;99689.03;;;21.90
48854;BMP280;34673;52.808;17.856;2022-07-26T04:50:24;99697.56;;;21.94
48854;BMP280;34673;52.808;17.856;2022-07-26T04:52:54;99697.75;;;21.91
48854;BMP280;34673;52.808;17.856;2022-07-26T04:55:22;99709.97;;;21.92
48854;BMP280;34673;52.808;17.856;2022-07-26T04:57:49;99705.13;;;21.86
48854;BMP280;34673;52.808;17.856;2022-07-26T05:00:19;99722.78;;;21.84
48854;BMP280;34673;52.808;17.856;2022-07-26T05:02:57;99708.44;;;21.75
48854;BMP280;34673;52.808;17.856;2022-07-26T05:05:26;99698.19;;;21.71
48854;BMP280;34673;52.808;17.856;2022-07-26T05:07:56;99685.44;;;21.64
48854;BMP280;34673;52.808;17.856;2022-07-26T05:10:30;99682.25;;;21.59
48854;BMP280;34673;52.808;17.856;2022-07-26T05:12:58;99686.06;;;21.55
48854;BMP280;34673;52.808;17.856;2022-07-26T05:15:25;99677.69;;;21.49
48854;BMP280;34673;52.808;17.856;2022-07-26T05:18:08;99677.81;;;21.47
48854;BMP280;34673;52.808;17.856;2022-07-26T05:20:39;99686.63;;;21.46
48854;BMP280;34673;52.808;17.856;2022-07-26T05:23:06;99693.59;;;21.47
48854;BMP280;34673;52.808;17.856;2022-07-26T05:25:33;99690.97;;;21.47
48854;BMP280;34673;52.808;17.856;2022-07-26T05:28:01;99688.41;;;21.45
48854;BMP280;34673;52.808;17.856;2022-07-26T05:30:28;99685.34;;;21.39
48854;BMP280;34673;52.808;17.856;2022-07-26T05:32:55;99698.84;;;21.47
48854;BMP280;34673;52.808;17.856;2022-07-26T05:35:22;99682.50;;;21.28
48854;BMP280;34673;52.808;17.856;2022-07-26T05:37:50;99698.09;;;21.31
48854;BMP280;34673;52.808;17.856;2022-07-26T05:40:17;99709.94;;;21.38
48854;BMP280;34673;52.808;17.856;2022-07-26T05:42:44;99723.84;;;21.40
48854;BMP280;34673;52.808;17.856;2022-07-26T05:45:11;99724.03;;;21.37
48854;BMP280;34673;52.808;17.856;2022-07-26T05:47:38;99711.78;;;21.36
48854;BMP280;34673;52.808;17.856;2022-07-26T05:50:06;99726.50;;;21.40
48854;BMP280;34673;52.808;17.856;2022-07-26T05:52:34;99730.06;;;21.39
48854;BMP280;34673;52.808;17.856;2022-07-26T05:55:01;99725.91;;;21.35
48854;BMP280;34673;52.808;17.856;2022-07-26T05:57:29;99756.47;;;21.37
48854;BMP280;34673;52.808;17.856;2022-07-26T05:59:57;99759.34;;;21.33
48854;BMP280;34673;52.808;17.856;2022-07-26T06:02:25;99770.81;;;21.32
48854;BMP280;34673;52.808;17.856;2022-07-26T06:04:52;99766.66;;;21.28
48854;BMP280;34673;52.808;17.856;2022-07-26T06:07:20;99771.19;;;21.25
48854;BMP280;34673;52.808;17.856;2022-07-26T06:09:48;99770.06;;;21.30
48854;BMP280;34673;52.808;17.856;2022-07-26T06:12:16;99770.06;;;21.30
48854;BMP280;34673;52.808;17.856;2022-07-26T06:14:43;99753.63;;;21.26
48854;BMP280;34673;52.808;17.856;2022-07-26T06:17:11;99766.66;;;21.28
48854;BMP280;34673;52.808;17.856;2022-07-26T06:19:38;99774.88;;;21.23
48854;BMP280;34673;52.808;17.856;2022-07-26T06:22:13;99782.19;;;21.18
48854;BMP280;34673;52.808;17.856;2022-07-26T06:24:40;99783.22;;;21.15
48854;BMP280;34673;52.808;17.856;2022-07-26T06:27:07;99780.66;;;21.14
48854;BMP280;34673;52.808;17.856;2022-07-26T06:29:34;99767.81;;;21.09
48854;BMP280;34673;52.808;17.856;2022-07-26T06:32:01;99776.09;;;21.17
48854;BMP280;34673;52.808;17.856;2022-07-26T06:34:29;99776.44;;;21.11
48854;BMP280;34673;52.808;17.856;2022-07-26T06:36:56;99776.44;;;21.11
48854;BMP280;34673;52.808;17.856;2022-07-26T06:39:24;99767.44;;;21.15
48854;BMP280;34673;52.808;17.856;2022-07-26T06:41:51;99769.13;;;21.16
48854;BMP280;34673;52.808;17.856;2022-07-26T06:44:20;99761.34;;;21.15
48854;BMP280;34673;52.808;17.856;2022-07-26T06:46:48;99786.31;;;21.08
48854;BMP280;34673;52.808;17.856;2022-07-26T06:49:15;99792.59;;;21.05
48854;BMP280;34673;52.808;17.856;2022-07-26T06:51:48;99805.19;;;21.00
48854;BMP280;34673;52.808;17.856;2022-07-26T06:54:15;99819.66;;;20.93
48854;BMP280;34673;52.808;17.856;2022-07-26T06:56:42;99839.16;;;20.89
48854;BMP280;34673;52.808;17.856;2022-07-26T06:59:09;99849.94;;;20.84
48854;BMP280;34673;52.808;17.856;2022-07-26T07:01:36;99855.81;;;20.73
48854;BMP280;34673;52.808;17.856;2022-07-26T07:04:23;99840.41;;;20.67
48854;BMP280;34673;52.808;17.856;2022-07-26T07:06:51;99834.31;;;20.67
48854;BMP280;34673;52.808;17.856;2022-07-26T07:09:18;99844.31;;;20.60
48854;BMP280;34673;52.808;17.856;2022-07-26T07:11:46;99832.31;;;20.56
48854;BMP280;34673;52.808;17.856;2022-07-26T07:14:24;99829.75;;;20.54
48854;BMP280;34673;52.808;17.856;2022-07-26T07:16:51;99840.97;;;20.58
48854;BMP280;34673;52.808;17.856;2022-07-26T07:19:18;99833.81;;;20.60
48854;BMP280;34673;52.808;17.856;2022-07-26T07:21:46;99831.75;;;20.65
48854;BMP280;34673;52.808;17.856;2022-07-26T07:24:13;99831.75;;;20.65
48854;BMP280;34673;52.808;17.856;2022-07-26T07:26:41;99841.75;;;20.74
48854;BMP280;34673;52.808;17.856;2022-07-26T07:29:09;99834.63;;;20.76
48854;BMP280;34673;52.808;17.856;2022-07-26T07:31:40;99847.59;;;20.79
48854;BMP280;34673;52.808;17.856;2022-07-26T07:34:16;99838.50;;;20.85
48854;BMP280;34673;52.808;17.856;2022-07-26T07:36:50;99847.81;;;20.91
48854;BMP280;34673;52.808;17.856;2022-07-26T07:39:18;99840.50;;;20.96
48854;BMP280;34673;52.808;17.856;2022-07-26T07:41:46;99853.47;;;20.99
48854;BMP280;34673;52.808;17.856;2022-07-26T07:44:14;99852.44;;;21.01
48854;BMP280;34673;52.808;17.856;2022-07-26T07:46:41;99864.56;;;21.04
48854;BMP280;34673;52.808;17.856;2022-07-26T07:49:08;99860.97;;;21.05
48854;BMP280;34673;52.808;17.856;2022-07-26T07:51:37;99846.72;;;21.09
48854;BMP280;34673;52.808;17.856;2022-07-26T07:54:05;99845.97;;;21.21
48854;BMP280;34673;52.808;17.856;2022-07-26T07:56:34;99850.50;;;21.34
48854;BMP280;34673;52.808;17.856;2022-07-26T07:59:01;99856.44;;;21.37
48854;BMP280;34673;52.808;17.856;2022-07-26T08:01:28;99861.44;;;21.42
48854;BMP280;34673;52.808;17.856;2022-07-26T08:04:07;99858.63;;;21.45
48854;BMP280;34673;52.808;17.856;2022-07-26T08:06:35;99860.56;;;21.41
48854;BMP280;34673;52.808;17.856;2022-07-26T08:09:03;99864.25;;;21.39
48854;BMP280;34673;52.808;17.856;2022-07-26T08:11:32;99853.88;;;21.36
48854;BMP280;34673;52.808;17.856;2022-07-26T08:14:00;99853.88;;;21.36
48854;BMP280;34673;52.808;17.856;2022-07-26T08:16:27;99861.63;;;21.53
48854;BMP280;34673;52.808;17.856;2022-07-26T08:18:55;99868.84;;;21.64
48854;BMP280;34673;52.808;17.856;2022-07-26T08:21:26;99870.16;;;21.71
48854;BMP280;34673;52.808;17.856;2022-07-26T08:23:56;99865.00;;;21.69
48854;BMP280;34673;52.808;17.856;2022-07-26T08:26:23;99864.03;;;21.71
48854;BMP280;34673;52.808;17.856;2022-07-26T08:28:50;99870.00;;;21.74
48854;BMP280;34673;52.808;17.856;2022-07-26T08:31:35;99871.47;;;21.78
48854;BMP280;34673;52.808;17.856;2022-07-26T08:34:02;99885.09;;;21.85
48854;BMP280;34673;52.808;17.856;2022-07-26T08:36:29;99886.25;;;21.81
48854;BMP280;34673;52.808;17.856;2022-07-26T08:39:00;99897.91;;;21.91
48854;BMP280;34673;52.808;17.856;2022-07-26T08:41:27;99896.19;;;21.90
48854;BMP280;34673;52.808;17.856;2022-07-26T08:44:03;99894.22;;;21.94
48854;BMP280;34673;52.808;17.856;2022-07-26T08:46:34;99889.22;;;22.03
48854;BMP280;34673;52.808;17.856;2022-07-26T08:49:01;99891.06;;;22.16
48854;BMP280;34673;52.808;17.856;2022-07-26T08:51:29;99897.28;;;22.29
48854;BMP280;34673;52.808;17.856;2022-07-26T08:53:59;99898.56;;;22.36
48854;BMP280;34673;52.808;17.856;2022-07-26T08:56:33;99898.19;;;22.42
48854;BMP280;34673;52.808;17.856;2022-07-26T08:59:19;99891.00;;;22.44
48854;BMP280;34673;52.808;17.856;2022-07-26T09:01:57;99898.88;;;22.59
48854;BMP280;34673;52.808;17.856;2022-07-26T09:07:05;99895.34;;;22.85
48854;BMP280;34673;52.808;17.856;2022-07-26T09:09:39;99903.25;;;22.99
48854;BMP280;34673;52.808;17.856;2022-07-26T09:12:23;99904.50;;;23.07
48854;BMP280;34673;52.808;17.856;2022-07-26T09:14:51;99904.72;;;23.04
48854;BMP280;34673;52.808;17.856;2022-07-26T09:17:20;99912.75;;;23.02
48854;BMP280;34673;52.808;17.856;2022-07-26T09:20:12;99905.13;;;22.97
48854;BMP280;34673;52.808;17.856;2022-07-26T09:23:05;99915.88;;;22.94
48854;BMP280;34673;52.808;17.856;2022-07-26T09:25:38;99916.28;;;22.88
48854;BMP280;34673;52.808;17.856;2022-07-26T09:28:28;99917.41;;;22.84
48854;BMP280;34673;52.808;17.856;2022-07-26T09:31:04;99915.19;;;22.78
48854;BMP280;34673;52.808;17.856;2022-07-26T09:33:44;99912.91;;;22.86
48854;BMP280;34673;52.808;17.856;2022-07-26T09:36:12;99914.16;;;22.93
48854;BMP280;34673;52.808;17.856;2022-07-26T09:38:51;99920.00;;;22.98
48854;BMP280;34673;52.808;17.856;2022-07-26T09:41:34;99921.13;;;22.94
48854;BMP280;34673;52.808;17.856;2022-07-26T09:44:06;99939.06;;;22.89
48854;BMP280;34673;52.808;17.856;2022-07-26T09:46:56;99928.50;;;22.89
48854;BMP280;34673;52.808;17.856;2022-07-26T09:49:24;99921.34;;;22.91
48854;BMP280;34673;52.808;17.856;2022-07-26T09:52:20;99917.75;;;22.92
48854;BMP280;34673;52.808;17.856;2022-07-26T09:54:48;99923.69;;;22.96
48854;BMP280;34673;52.808;17.856;2022-07-26T09:57:17;99933.19;;;22.98
48854;BMP280;34673;52.808;17.856;2022-07-26T09:59:46;99934.28;;;23.09
48854;BMP280;34673;52.808;17.856;2022-07-26T10:02:13;99930.50;;;23.13
48854;BMP280;34673;52.808;17.856;2022-07-26T10:04:41;99936.19;;;23.19
48854;BMP280;34673;52.808;17.856;2022-07-26T10:07:09;99922.91;;;23.21
48854;BMP280;34673;52.808;17.856;2022-07-26T10:09:51;99930.13;;;23.32
48854;BMP280;34673;52.808;17.856;2022-07-26T10:12:22;99931.81;;;23.45
48854;BMP280;34673;52.808;17.856;2022-07-26T10:14:56;99932.66;;;23.59
48854;BMP280;34673;52.808;17.856;2022-07-26T10:19:59;99923.16;;;23.82
48854;BMP280;34673;52.808;17.856;2022-07-26T10:22:44;99923.56;;;23.88
48854;BMP280;34673;52.808;17.856;2022-07-26T10:27:46;99924.59;;;23.99
48854;BMP280;34673;52.808;17.856;2022-07-26T10:40:39;99934.00;;;24.03
48854;BMP280;34673;52.808;17.856;2022-07-26T10:43:21;99928.44;;;23.95
48854;BMP280;34673;52.808;17.856;2022-07-26T10:48:58;99938.56;;;24.01
48854;BMP280;34673;52.808;17.856;2022-07-26T10:51:36;99936.44;;;24.06
48854;BMP280;34673;52.808;17.856;2022-07-26T10:54:13;99938.09;;;24.07
48854;BMP280;34673;52.808;17.856;2022-07-26T10:56:42;99937.88;;;24.10
48854;BMP280;34673;52.808;17.856;2022-07-26T10:59:09;99937.47;;;24.16
48854;BMP280;34673;52.808;17.856;2022-07-26T11:01:39;99933.41;;;24.23
48854;BMP280;34673;52.808;17.856;2022-07-26T11:04:22;99927.03;;;24.39
48854;BMP280;34673;52.808;17.856;2022-07-26T11:06:50;99931.13;;;24.43
48854;BMP280;34673;52.808;17.856;2022-07-26T11:09:17;99925.13;;;24.41
48854;BMP280;34673;52.808;17.856;2022-07-26T11:11:47;99922.34;;;24.42
48854;BMP280;34673;52.808;17.856;2022-07-26T11:14:15;99924.25;;;24.53
48854;BMP280;34673;52.808;17.856;2022-07-26T11:16:46;99926.56;;;24.58
48854;BMP280;34673;52.808;17.856;2022-07-26T11:19:22;99925.72;;;24.57
48854;BMP280;34673;52.808;17.856;2022-07-26T11:22:02;99928.72;;;24.52
48854;BMP280;34673;52.808;17.856;2022-07-26T11:24:29;99926.16;;;24.51
48854;BMP280;34673;52.808;17.856;2022-07-26T11:27:02;99919.44;;;24.47
48854;BMP280;34673;52.808;17.856;2022-07-26T11:29:31;99922.34;;;24.42
48854;BMP280;34673;52.808;17.856;2022-07-26T11:32:19;99918.81;;;24.30
48854;BMP280;34673;52.808;17.856;2022-07-26T11:34:57;99915.88;;;24.22
48854;BMP280;34673;52.808;17.856;2022-07-26T11:37:25;99926.00;;;24.28
48854;BMP280;34673;52.808;17.856;2022-07-26T11:39:53;99928.56;;;24.30
48854;BMP280;34673;52.808;17.856;2022-07-26T11:42:20;99928.88;;;24.25
48854;BMP280;34673;52.808;17.856;2022-07-26T11:44:49;99922.63;;;24.26
48854;BMP280;34673;52.808;17.856;2022-07-26T11:47:19;99925.56;;;24.34
48854;BMP280;34673;52.808;17.856;2022-07-26T11:49:51;99916.47;;;24.39
48854;BMP280;34673;52.808;17.856;2022-07-26T11:52:38;99904.41;;;24.34
48854;BMP280;34673;52.808;17.856;2022-07-26T11:55:06;99909.06;;;24.44
48854;BMP280;34673;52.808;17.856;2022-07-26T11:57:33;99917.28;;;24.52
48854;BMP280;34673;52.808;17.856;2022-07-26T12:00:01;99911.53;;;24.58
48854;BMP280;34673;52.808;17.856;2022-07-26T12:02:37;99911.94;;;24.65
48854;BMP280;34673;52.808;17.856;2022-07-26T12:05:19;99919.25;;;24.61
48854;BMP280;34673;52.808;17.856;2022-07-26T12:08:00;99916.59;;;24.61
48854;BMP280;34673;52.808;17.856;2022-07-26T12:10:33;99904.34;;;24.60
48854;BMP280;34673;52.808;17.856;2022-07-26T12:13:07;99901.97;;;24.68
48854;BMP280;34673;52.808;17.856;2022-07-26T12:15:49;99901.06;;;24.81
48854;BMP280;34673;52.808;17.856;2022-07-26T12:18:30;99892.66;;;24.75
48854;BMP280;34673;52.808;17.856;2022-07-26T12:21:07;99896.47;;;24.71
48854;BMP280;34673;52.808;17.856;2022-07-26T12:23:46;99905.13;;;24.73
48854;BMP280;34673;52.808;17.856;2022-07-26T12:26:20;99895.75;;;24.81
48854;BMP280;34673;52.808;17.856;2022-07-26T12:28:48;99895.09;;;24.90
48854;BMP280;34673;52.808;17.856;2022-07-26T12:31:28;99898.25;;;24.95
48854;BMP280;34673;52.808;17.856;2022-07-26T12:33:57;99892.47;;;25.01
48854;BMP280;34673;52.808;17.856;2022-07-26T12:36:24;99897.06;;;25.10
48854;BMP280;34673;52.808;17.856;2022-07-26T12:38:58;99896.16;;;25.23
48854;BMP280;34673;52.808;17.856;2022-07-26T12:41:34;99905.09;;;25.22
48854;BMP280;34673;52.808;17.856;2022-07-26T12:44:03;99902.13;;;25.13
48854;BMP280;34673;52.808;17.856;2022-07-26T12:46:32;99904.50;;;25.05
48854;BMP280;34673;52.808;17.856;2022-07-26T12:49:00;99904.28;;;25.08
48854;BMP280;34673;52.808;17.856;2022-07-26T12:51:27;99900.44;;;25.12
48854;BMP280;34673;52.808;17.856;2022-07-26T12:53:55;99904.59;;;25.28
48854;BMP280;34673;52.808;17.856;2022-07-26T12:56:22;99893.53;;;25.34
48854;BMP280;34673;52.808;17.856;2022-07-26T12:58:49;99895.84;;;25.38
48854;BMP280;34673;52.808;17.856;2022-07-26T13:01:16;99900.75;;;25.32
48854;BMP280;34673;52.808;17.856;2022-07-26T13:03:44;99899.06;;;25.19
48854;BMP280;34673;52.808;17.856;2022-07-26T13:06:11;99897.28;;;25.07
48854;BMP280;34673;52.808;17.856;2022-07-26T13:08:39;99900.66;;;24.98
48854;BMP280;34673;52.808;17.856;2022-07-26T13:11:06;99903.88;;;24.90
48854;BMP280;34673;52.808;17.856;2022-07-26T13:13:33;99906.97;;;24.84
48854;BMP280;34673;52.808;17.856;2022-07-26T13:16:00;99904.16;;;24.74
48854;BMP280;34673;52.808;17.856;2022-07-26T13:18:31;99905.59;;;24.67
48854;BMP280;34673;52.808;17.856;2022-07-26T13:20:58;99907.00;;;24.60
48854;BMP280;34673;52.808;17.856;2022-07-26T13:23:25;99900.91;;;24.47
48854;BMP280;34673;52.808;17.856;2022-07-26T13:25:52;99901.66;;;24.49
48854;BMP280;34673;52.808;17.856;2022-07-26T13:28:20;99910.94;;;24.42
48854;BMP280;34673;52.808;17.856;2022-07-26T13:30:47;99907.56;;;24.40
48854;BMP280;34673;52.808;17.856;2022-07-26T13:33:14;99914.97;;;24.34
48854;BMP280;34673;52.808;17.856;2022-07-26T13:35:43;99916.69;;;24.36
48854;BMP280;34673;52.808;17.856;2022-07-26T13:38:10;99920.06;;;24.38
48854;BMP280;34673;52.808;17.856;2022-07-26T13:40:37;99914.38;;;24.44
48854;BMP280;34673;52.808;17.856;2022-07-26T13:43:04;99916.84;;;24.58
48854;BMP280;34673;52.808;17.856;2022-07-26T13:45:32;99918.09;;;24.65
48854;BMP280;34673;52.808;17.856;2022-07-26T13:47:59;99910.88;;;24.67
48854;BMP280;34673;52.808;17.856;2022-07-26T13:50:27;99914.66;;;24.76
48854;BMP280;34673;52.808;17.856;2022-07-26T13:52:55;99918.63;;;24.82
48854;BMP280;34673;52.808;17.856;2022-07-26T13:55:23;99916.72;;;24.84
48854;BMP280;34673;52.808;17.856;2022-07-26T13:57:50;99923.94;;;24.82
48854;BMP280;34673;52.808;17.856;2022-07-26T14:00:25;99915.25;;;24.80
48854;BMP280;34673;52.808;17.856;2022-07-26T14:02:54;99910.19;;;24.76
48854;BMP280;34673;52.808;17.856;2022-07-26T14:05:23;99920.38;;;24.70
48854;BMP280;34673;52.808;17.856;2022-07-26T14:07:50;99912.56;;;24.68
48854;BMP280;34673;52.808;17.856;2022-07-26T14:10:19;99897.53;;;24.69
48854;BMP280;34673;52.808;17.856;2022-07-26T14:12:47;99912.63;;;24.91
48854;BMP280;34673;52.808;17.856;2022-07-26T14:15:15;99901.50;;;25.10
48854;BMP280;34673;52.808;17.856;2022-07-26T14:17:48;99895.78;;;25.16
48854;BMP280;34673;52.808;17.856;2022-07-26T14:20:15;99905.53;;;25.27
48854;BMP280;34673;52.808;17.856;2022-07-26T14:22:43;99910.50;;;25.31
48854;BMP280;34673;52.808;17.856;2022-07-26T14:25:11;99905.44;;;25.28
48854;BMP280;34673;52.808;17.856;2022-07-26T14:27:38;99904.47;;;25.29
48854;BMP280;34673;52.808;17.856;2022-07-26T14:30:05;99904.38;;;25.31
48854;BMP280;34673;52.808;17.856;2022-07-26T14:32:33;99909.66;;;25.31